createdAt,value
2023-03-22T00:01:54.103Z,3.90
2023-03-22T00:04:43.240Z,2.17
2023-03-22T00:07:31.642Z,3.08
2023-03-22T00:10:18.418Z,1.67
2023-03-22T00:13:07.492Z,3.08
2023-03-22T00:15:55.712Z,4.28
2023-03-22T00:18:42.612Z,3.72
2023-03-22T00:21:29.428Z,3.03
2023-03-22T00:24:16.370Z,3.90
2023-03-22T00:27:03.601Z,2.47
2023-03-22T00:29:52.751Z,1.95
2023-03-22T00:32:40.079Z,3.55
2023-03-22T00:35:27.044Z,2.15
2023-03-22T00:38:14.178Z,2.70
2023-03-22T00:41:09.060Z,1.55
2023-03-22T00:43:56.112Z,3.13
2023-03-22T00:46:43.040Z,1.52
2023-03-22T00:49:31.346Z,1.90
2023-03-22T00:52:18.198Z,2.00
2023-03-22T00:55:05.509Z,2.13
2023-03-22T00:57:52.572Z,4.95
2023-03-22T01:00:39.699Z,3.63
2023-03-22T01:03:26.789Z,3.45
2023-03-22T01:06:13.599Z,4.47
2023-03-22T01:09:00.429Z,3.05
2023-03-22T01:11:47.332Z,1.95
2023-03-22T01:14:34.217Z,2.30
2023-03-22T01:17:21.275Z,2.40
2023-03-22T01:20:09.617Z,3.10
2023-03-22T01:22:56.488Z,2.55
2023-03-22T01:25:43.417Z,2.55
2023-03-22T01:28:31.023Z,2.10
2023-03-22T01:31:18.123Z,1.63
2023-03-22T01:34:05.417Z,1.63
2023-03-22T01:36:52.394Z,1.65
2023-03-22T01:39:39.316Z,3.50
2023-03-22T01:42:27.280Z,1.30
2023-03-22T01:45:14.206Z,2.60
2023-03-22T01:48:05.993Z,3.17
2023-03-22T01:51:03.107Z,3.17
2023-03-22T01:53:53.531Z,1.45
2023-03-22T01:56:41.958Z,1.38
2023-03-22T01:59:30.949Z,3.60
2023-03-22T02:02:22.292Z,1.80
2023-03-22T02:05:10.040Z,2.55
2023-03-22T02:07:57.085Z,1.63
2023-03-22T02:10:43.984Z,2.25
2023-03-22T02:13:42.515Z,1.87
2023-03-22T02:16:35.542Z,1.45
2023-03-22T02:19:57.151Z,1.20
2023-03-22T02:23:14.242Z,1.65
2023-03-22T02:26:31.092Z,2.05
2023-03-22T02:29:48.142Z,1.40
2023-03-22T02:32:40.792Z,1.40
2023-03-22T02:35:38.265Z,2.33
2023-03-22T02:39:13.368Z,1.70
2023-03-22T02:42:18.823Z,1.50
2023-03-22T02:45:14.965Z,1.55
2023-03-22T02:48:09.936Z,1.70
2023-03-22T02:51:09.768Z,2.67
2023-03-22T02:54:06.723Z,1.38
2023-03-22T02:57:03.121Z,1.73
2023-03-22T02:59:51.799Z,2.78
2023-03-22T03:02:45.552Z,2.95
2023-03-22T03:05:33.564Z,2.00
2023-03-22T03:08:21.141Z,2.80
2023-03-22T03:11:08.099Z,2.25
2023-03-22T03:13:54.877Z,2.33
2023-03-22T03:16:41.860Z,13.90
2023-03-22T03:19:54.550Z,14.93
2023-03-22T03:22:47.307Z,7.60
2023-03-22T03:25:50.938Z,3.65
2023-03-22T03:29:00.875Z,2.25
2023-03-22T03:31:52.932Z,1.83
2023-03-22T03:35:08.653Z,3.20
2023-03-22T03:38:08.827Z,2.22
2023-03-22T03:41:00.977Z,2.33
2023-03-22T03:43:49.405Z,1.73
2023-03-22T03:46:36.528Z,2.03
2023-03-22T03:49:24.112Z,1.90
2023-03-22T03:52:11.060Z,2.22
2023-03-22T03:54:58.460Z,2.97
2023-03-22T03:57:45.346Z,3.90
2023-03-22T04:00:32.165Z,2.00
2023-03-22T04:03:19.202Z,1.55
2023-03-22T04:06:06.653Z,0.80
2023-03-22T04:08:53.547Z,1.55
2023-03-22T04:11:40.402Z,1.43
2023-03-22T04:14:27.643Z,1.05
2023-03-22T04:17:14.456Z,1.40
2023-03-22T04:20:06.896Z,2.28
2023-03-22T04:22:53.829Z,2.83
2023-03-22T04:25:41.899Z,2.07
2023-03-22T04:28:28.676Z,2.13
2023-03-22T04:31:15.613Z,1.48
2023-03-22T04:34:05.840Z,1.92
2023-03-22T04:36:52.856Z,6.68
2023-03-22T04:39:39.822Z,7.03
2023-03-22T04:42:26.921Z,2.67
2023-03-22T04:45:14.479Z,1.90
2023-03-22T04:48:01.473Z,1.88
2023-03-22T04:50:48.375Z,2.17
2023-03-22T04:53:38.805Z,3.07
2023-03-22T04:56:25.730Z,3.05
2023-03-22T04:59:12.814Z,3.43
2023-03-22T05:01:59.948Z,2.60
2023-03-22T05:04:47.003Z,1.67
2023-03-22T05:07:33.870Z,4.30
2023-03-22T05:10:20.715Z,3.47
2023-03-22T05:13:07.508Z,2.87
2023-03-22T05:15:54.824Z,2.92
2023-03-22T05:18:45.435Z,2.47
2023-03-22T05:21:37.034Z,2.97
2023-03-22T05:24:24.272Z,1.77
2023-03-22T05:27:11.069Z,5.57
2023-03-22T05:29:57.890Z,6.57
2023-03-22T05:32:44.849Z,9.60
2023-03-22T05:35:32.234Z,10.40
2023-03-22T05:38:19.099Z,8.35
2023-03-22T05:41:06.193Z,6.53
2023-03-22T05:43:53.130Z,3.75
2023-03-22T05:46:40.107Z,4.03
2023-03-22T05:49:27.248Z,4.75
2023-03-22T05:52:14.085Z,4.85
2023-03-22T05:55:01.213Z,4.35
2023-03-22T05:57:53.898Z,1.85
2023-03-22T06:00:41.199Z,3.15
2023-03-22T06:03:28.667Z,45.63
2023-03-22T06:06:15.845Z,64.45
2023-03-22T06:09:15.964Z,56.17
2023-03-22T06:12:04.358Z,32.47
2023-03-22T06:14:51.321Z,21.98
2023-03-22T06:17:38.581Z,21.60
2023-03-22T06:20:25.840Z,17.58
2023-03-22T06:23:12.774Z,11.27
2023-03-22T06:25:59.707Z,17.67
2023-03-22T06:28:46.545Z,12.60
2023-03-22T06:31:33.395Z,15.87
2023-03-22T06:34:20.630Z,25.98
2023-03-22T06:37:07.610Z,12.98
2023-03-22T06:39:54.396Z,11.53
2023-03-22T06:42:41.288Z,4.67
2023-03-22T06:45:33.374Z,7.83
2023-03-22T06:48:20.339Z,5.55
2023-03-22T06:51:07.367Z,5.33
2023-03-22T06:53:54.165Z,8.43
2023-03-22T06:56:40.972Z,3.53
2023-03-22T06:59:28.368Z,4.60
2023-03-22T07:02:15.505Z,4.75
2023-03-22T07:05:02.366Z,2.63
2023-03-22T07:07:49.252Z,3.37
2023-03-22T07:10:36.059Z,3.07
2023-03-22T07:13:23.451Z,2.70
2023-03-22T07:16:11.063Z,3.60
2023-03-22T07:18:57.892Z,6.68
2023-03-22T07:21:44.772Z,3.33
2023-03-22T07:24:31.619Z,3.37
2023-03-22T07:27:19.549Z,3.78
2023-03-22T07:30:09.651Z,5.03
2023-03-22T07:32:56.677Z,2.58
2023-03-22T07:35:43.536Z,2.63
2023-03-22T07:38:30.603Z,1.87
2023-03-22T07:41:18.534Z,3.53
2023-03-22T07:44:17.188Z,2.85
2023-03-22T07:47:04.751Z,2.65
2023-03-22T07:49:51.716Z,3.47
2023-03-22T07:52:41.982Z,4.10
2023-03-22T07:55:28.772Z,4.55
2023-03-22T07:58:15.773Z,3.40
2023-03-22T08:01:09.053Z,2.77
2023-03-22T08:03:56.148Z,2.08
2023-03-22T08:06:43.882Z,2.30
2023-03-22T08:09:30.708Z,1.67
2023-03-22T08:12:17.848Z,1.70
2023-03-22T08:15:05.502Z,2.42
2023-03-22T08:17:52.877Z,2.03
2023-03-22T08:20:40.177Z,2.28
2023-03-22T08:23:40.613Z,2.05
2023-03-22T08:26:28.926Z,2.85
2023-03-22T08:32:18.043Z,1.67
2023-03-22T08:35:06.386Z,1.85
2023-03-22T08:37:57.039Z,1.55
2023-03-22T08:40:46.945Z,1.23
2023-03-22T08:43:33.810Z,2.78
2023-03-22T08:46:20.794Z,1.88
2023-03-22T08:49:10.420Z,2.53
2023-03-22T08:52:00.116Z,3.78
2023-03-22T08:54:47.021Z,2.20
2023-03-22T08:57:34.218Z,2.15
2023-03-22T09:00:21.440Z,2.53
2023-03-22T09:03:08.246Z,2.30
2023-03-22T09:05:55.104Z,3.05
2023-03-22T09:08:42.129Z,3.97
2023-03-22T09:11:29.022Z,4.97
2023-03-22T09:14:15.812Z,1.77
2023-03-22T09:17:02.728Z,5.28
2023-03-22T09:19:49.574Z,6.17
2023-03-22T09:22:36.345Z,6.70
2023-03-22T09:25:23.169Z,9.02
2023-03-22T09:28:10.457Z,7.13
2023-03-22T09:31:05.555Z,7.40
2023-03-22T09:33:52.468Z,3.65
2023-03-22T09:36:39.299Z,2.47
2023-03-22T09:39:26.108Z,1.30
2023-03-22T09:42:29.113Z,0.82
2023-03-22T09:45:25.265Z,1.50
2023-03-22T09:48:20.770Z,1.05
2023-03-22T09:51:23.790Z,1.17
2023-03-22T09:54:15.330Z,2.33
2023-03-22T09:57:11.182Z,1.45
2023-03-22T10:00:01.079Z,2.45
2023-03-22T10:03:05.329Z,1.08
2023-03-22T10:06:22.981Z,2.42
2023-03-22T10:09:48.709Z,1.00
2023-03-22T10:12:43.506Z,0.90
2023-03-22T10:15:41.324Z,1.13
2023-03-22T10:18:36.720Z,0.65
2023-03-22T10:21:23.876Z,1.52
2023-03-22T10:24:19.440Z,0.73
2023-03-22T10:27:16.364Z,0.70
2023-03-22T10:30:20.722Z,2.05
2023-03-22T10:33:50.116Z,1.08
2023-03-22T10:36:39.894Z,1.15
2023-03-22T10:39:29.834Z,2.20
2023-03-22T10:42:25.646Z,1.05
2023-03-22T10:45:14.577Z,0.73
2023-03-22T10:48:03.721Z,0.73
2023-03-22T10:50:51.199Z,0.80
2023-03-22T10:53:45.703Z,0.70
2023-03-22T10:57:09.510Z,1.27
2023-03-22T10:59:57.149Z,0.95
2023-03-22T11:02:53.349Z,0.52
2023-03-22T11:05:40.465Z,0.63
2023-03-22T11:11:28.436Z,0.70
2023-03-22T11:14:20.494Z,0.98
2023-03-22T11:17:12.654Z,1.30
2023-03-22T11:20:09.932Z,0.30
2023-03-22T11:23:02.760Z,0.68
2023-03-22T11:25:52.252Z,0.73
2023-03-22T11:28:49.939Z,0.60
2023-03-22T11:31:55.997Z,0.75
2023-03-22T11:34:46.433Z,0.20
2023-03-22T11:37:33.300Z,0.88
2023-03-22T11:43:10.910Z,0.80
2023-03-22T11:45:59.870Z,0.47
2023-03-22T11:48:50.143Z,0.60
2023-03-22T11:51:40.826Z,0.85
2023-03-22T11:54:32.027Z,0.70
2023-03-22T11:57:27.451Z,0.50
2023-03-22T12:00:23.537Z,0.60
2023-03-22T12:03:15.838Z,0.40
2023-03-22T12:06:08.197Z,1.60
2023-03-22T12:09:07.288Z,2.22
2023-03-22T12:11:57.464Z,0.60
2023-03-22T12:14:51.896Z,0.63
2023-03-22T12:17:42.983Z,0.65
2023-03-22T12:20:35.751Z,0.50
2023-03-22T12:23:25.869Z,0.77
2023-03-22T12:26:12.663Z,0.43
2023-03-22T12:29:04.872Z,0.88
2023-03-22T12:32:09.801Z,0.80
2023-03-22T12:35:09.117Z,0.30
2023-03-22T12:38:12.293Z,0.43
2023-03-22T12:41:04.939Z,0.32
2023-03-22T12:44:01.574Z,0.50
2023-03-22T12:46:58.208Z,2.28
2023-03-22T12:50:01.046Z,1.42
2023-03-22T12:52:50.540Z,1.77
2023-03-22T12:55:40.350Z,0.57
2023-03-22T12:58:28.035Z,1.85
2023-03-22T13:01:36.604Z,0.88
2023-03-22T13:04:34.832Z,0.60
2023-03-22T13:07:30.596Z,0.73
2023-03-22T13:10:29.734Z,0.60
2023-03-22T13:13:23.102Z,1.00
2023-03-22T13:16:10.757Z,1.15
2023-03-22T13:19:00.588Z,0.98
2023-03-22T13:21:49.704Z,1.13
2023-03-22T13:25:23.752Z,0.80
2023-03-22T13:28:28.431Z,1.95
2023-03-22T13:31:38.900Z,1.30
2023-03-22T13:34:38.346Z,0.65
2023-03-22T13:37:35.963Z,1.55
2023-03-22T13:40:29.202Z,0.98
2023-03-22T13:43:36.912Z,0.75
2023-03-22T13:46:23.761Z,0.90
2023-03-22T13:49:24.238Z,1.00
2023-03-22T13:52:43.330Z,1.73
2023-03-22T13:55:54.354Z,0.93
2023-03-22T13:58:53.014Z,1.20
2023-03-22T14:01:47.806Z,0.60
2023-03-22T14:04:48.918Z,0.82
2023-03-22T14:07:44.344Z,0.70
2023-03-22T14:10:43.445Z,0.80
2023-03-22T14:13:44.400Z,2.05
2023-03-22T14:16:36.959Z,0.50
2023-03-22T14:19:29.089Z,0.55
